Time;durP1;ratioP1;P1;durP2;ratioP2;P2;SDS_P1;SDS_P2;PMS_P1;PMS_P2;Temp;Humidity;BMP_temperature;BMP_pressure;BME280_temperature;BME280_humidity;BME280_pressure;Samples;Min_cycle;Max_cycle;Signal;HPM_P1;HPM_P2
2023/07/20 00:00:26;;;;;;;10.18;6.75;;;;;;;27.84;51.68;99404.69;5121073;27;20050;-64
2023/07/20 00:02:52;;;;;;;9.63;7.00;;;;;;;27.60;52.91;99420.91;5139470;27;20333;-64
2023/07/20 00:05:24;;;;;;;13.45;6.78;;;;;;;27.19;53.54;99405.88;5139706;27;20481;-64
2023/07/20 00:07:52;;;;;;;9.55;6.20;;;;;;;27.22;53.29;99375.41;5139664;27;20137;-64
2023/07/20 00:10:17;;;;;;;9.30;6.22;;;;;;;27.36;52.39;99354.69;5140027;27;20046;-64
2023/07/20 00:12:47;;;;;;;7.10;5.72;;;;;;;27.65;51.24;99341.19;5139426;27;20122;-64
2023/07/20 00:15:13;;;;;;;7.00;5.70;;;;;;;27.86;49.69;99339.91;5139262;27;20076;-65
2023/07/20 00:17:39;;;;;;;7.35;5.65;;;;;;;27.98;49.19;99348.50;5139585;27;20031;-64
2023/07/20 00:20:06;;;;;;;7.00;5.20;;;;;;;27.80;49.74;99351.13;5139386;27;20038;-64
2023/07/20 00:22:31;;;;;;;7.72;5.55;;;;;;;28.03;49.02;99352.28;5139519;27;20031;-64
2023/07/20 00:24:57;;;;;;;7.68;5.80;;;;;;;28.18;47.64;99338.56;5139182;27;20466;-65
2023/07/20 00:27:22;;;;;;;10.10;5.32;;;;;;;28.23;47.47;99327.66;5139309;27;20039;-64
2023/07/20 00:29:47;;;;;;;6.53;5.22;;;;;;;28.16;48.32;99308.91;5139555;27;20035;-65
2023/07/20 00:32:13;;;;;;;10.02;5.43;;;;;;;28.27;47.57;99301.47;5139128;27;20047;-65
2023/07/20 00:34:38;;;;;;;8.70;6.18;;;;;;;28.23;49.19;99292.25;5139072;27;20061;-64
2023/07/20 00:37:04;;;;;;;9.32;6.18;;;;;;;28.17;49.89;99296.09;5139460;27;20041;-65
2023/07/20 00:39:30;;;;;;;9.93;6.60;;;;;;;28.18;50.04;99282.22;5139697;27;20378;-64
2023/07/20 00:41:55;;;;;;;9.45;6.75;;;;;;;28.21;50.13;99270.75;5139522;27;20038;-64
2023/07/20 00:44:21;;;;;;;10.20;6.40;;;;;;;28.19;50.51;99274.84;5139176;27;20035;-64
2023/07/20 00:46:47;;;;;;;11.30;6.90;;;;;;;28.00;51.03;99282.91;5138812;27;20039;-64
2023/07/20 00:49:14;;;;;;;10.63;6.65;;;;;;;27.88;51.63;99266.16;5139431;27;20323;-64
2023/07/20 00:51:39;;;;;;;9.93;6.88;;;;;;;27.83;52.06;99277.91;5139487;27;20043;-64
2023/07/20 00:54:05;;;;;;;10.40;7.35;;;;;;;27.73;52.06;99274.47;5138723;27;20357;-64
2023/07/20 00:56:30;;;;;;;7.32;6.13;;;;;;;27.80;51.53;99278.47;5138954;27;20046;-64
2023/07/20 00:58:55;;;;;;;11.68;6.93;;;;;;;27.81;51.61;99271.13;5141149;27;20361;-64
2023/07/20 01:01:22;;;;;;;9.55;6.03;;;;;;;27.88;51.26;99275.13;5143544;27;20039;-64
2023/07/20 01:03:48;;;;;;;8.85;5.95;;;;;;;27.87;50.92;99281.69;5143448;27;20328;-64
2023/07/20 01:06:29;;;;;;;12.27;6.57;;;;;;;27.93;50.63;99283.25;5143084;27;20046;-64
2023/07/20 01:09:09;;;;;;;9.60;6.47;;;;;;;28.00;50.26;99282.91;5143027;27;20341;-64
2023/07/20 01:11:52;;;;;;;10.60;7.20;;;;;;;27.99;49.92;99276.66;5142753;27;20046;-63
2023/07/20 01:14:18;;;;;;;;;;;;;;;28.05;49.07;99260.28;5143648;27;20050;-63
2023/07/20 01:16:44;;;;;;;11.20;6.63;;;;;;;28.05;49.24;99252.94;5142457;27;20118;-64
2023/07/20 01:19:09;;;;;;;11.77;6.57;;;;;;;28.03;49.06;99251.59;5142522;27;20026;-64
2023/07/20 01:21:51;;;;;;;9.93;6.10;;;;;;;28.06;49.00;99240.94;5142560;27;20314;-63
2023/07/20 01:24:28;;;;;;;8.05;6.50;;;;;;;28.15;48.63;99239.22;5142395;27;20043;-64
2023/07/20 01:27:30;;;;;;;9.15;6.03;;;;;;;28.20;48.61;99258.22;5142292;27;20055;-64
2023/07/20 01:30:14;;;;;;;7.28;5.60;;;;;;;28.32;48.43;99252.41;5142692;27;20341;-64
2023/07/20 01:32:43;;;;;;;9.43;6.13;;;;;;;28.36;48.46;99260.81;5142264;27;20047;-63
2023/07/20 01:35:14;;;;;;;11.63;6.43;;;;;;;28.43;48.12;99247.66;5142752;27;20066;-64
2023/07/20 01:37:42;;;;;;;13.43;6.90;;;;;;;28.44;47.73;99241.09;5142345;27;20050;-65
2023/07/20 01:40:09;;;;;;;8.60;5.75;;;;;;;28.45;47.20;99243.53;5142978;27;20125;-63
2023/07/20 01:42:34;;;;;;;8.90;5.78;;;;;;;28.47;47.07;99241.34;5142333;27;20321;-63
2023/07/20 01:45:00;;;;;;;10.35;6.35;;;;;;;28.48;47.42;99253.03;5142721;27;20080;-63
2023/07/20 01:47:25;;;;;;;8.75;6.15;;;;;;;28.44;47.44;99255.53;5142325;27;20437;-64
2023/07/20 01:49:51;;;;;;;11.35;6.85;;;;;;;28.39;48.37;99247.41;5142742;27;20053;-63
2023/07/20 01:52:16;;;;;;;9.52;6.55;;;;;;;28.31;48.22;99249.97;5142756;27;20065;-64
2023/07/20 01:54:42;;;;;;;9.13;6.63;;;;;;;28.31;48.16;99247.25;5142065;27;20086;-64
2023/07/20 01:57:07;;;;;;;8.80;6.45;;;;;;;28.37;48.79;99248.81;5142858;27;20084;-63
2023/07/20 01:59:33;;;;;;;12.02;5.72;;;;;;;28.40;49.45;99240.06;5142178;27;20041;-64
2023/07/20 02:01:58;;;;;;;11.70;5.80;;;;;;;28.38;49.43;99253.97;5142721;27;20039;-65
2023/07/20 02:04:23;;;;;;;8.98;5.93;;;;;;;27.83;51.31;99255.34;5142089;27;20038;-64
2023/07/20 02:06:49;;;;;;;8.13;5.53;;;;;;;27.82;51.73;99256.44;5141388;27;20039;-64
2023/07/20 02:09:14;;;;;;;7.95;5.47;;;;;;;27.82;50.69;99262.69;5142073;27;20039;-64
2023/07/20 02:11:40;;;;;;;9.55;5.90;;;;;;;27.76;50.76;99268.47;5141847;27;20309;-64
2023/07/20 02:14:05;;;;;;;9.55;5.65;;;;;;;27.84;51.52;99270.56;5141796;27;20039;-63
2023/07/20 02:16:31;;;;;;;12.32;6.10;;;;;;;27.89;52.12;99265.06;5142008;27;20045;-63
2023/07/20 02:18:56;;;;;;;9.02;6.13;;;;;;;27.88;51.73;99263.44;5142139;27;20817;-63
2023/07/20 02:21:22;;;;;;;8.85;5.78;;;;;;;27.91;51.23;99254.72;5142401;27;20344;-64
2023/07/20 02:23:48;;;;;;;8.68;6.10;;;;;;;27.99;51.05;99267.69;5141978;27;20043;-64
2023/07/20 02:26:14;;;;;;;13.20;7.32;;;;;;;28.06;50.73;99268.16;5141652;27;20055;-64
2023/07/20 02:28:41;;;;;;;8.35;6.22;;;;;;;28.08;50.74;99267.88;5141693;27;20043;-64
2023/07/20 02:31:06;;;;;;;6.03;5.43;;;;;;;28.07;50.49;99268.97;5141481;27;20071;-65
2023/07/20 02:33:32;;;;;;;10.68;5.68;;;;;;;28.11;50.60;99256.44;5141752;27;20054;-64
2023/07/20 02:35:57;;;;;;;14.00;6.03;;;;;;;28.14;50.75;99258.56;5141589;27;20321;-64
2023/07/20 02:38:23;;;;;;;9.93;5.30;;;;;;;28.15;51.07;99260.19;5141495;27;20035;-63
2023/07/20 02:40:48;;;;;;;9.75;5.60;;;;;;;28.09;51.68;99254.00;5141634;27;20031;-64
2023/07/20 02:43:13;;;;;;;8.88;5.53;;;;;;;27.97;52.47;99251.66;5141553;27;20045;-64
2023/07/20 02:45:43;;;;;;;9.85;6.13;;;;;;;27.85;52.97;99250.41;5141206;27;20161;-64
2023/07/20 02:48:09;;;;;;;9.43;6.57;;;;;;;27.72;53.40;99251.91;5141195;27;20038;-64
2023/07/20 02:50:35;;;;;;;9.90;5.40;;;;;;;27.71;53.74;99254.91;5141183;27;20041;-64
2023/07/20 02:53:00;;;;;;;11.18;6.10;;;;;;;27.71;53.80;99252.19;5140990;27;20026;-64
2023/07/20 02:55:26;;;;;;;9.15;6.07;;;;;;;27.69;54.23;99255.19;5140793;27;20046;-64
2023/07/20 02:57:51;;;;;;;10.13;6.60;;;;;;;27.65;54.13;99248.69;5141234;27;20030;-64
2023/07/20 03:00:19;;;;;;;9.60;5.85;;;;;;;27.61;54.65;99239.50;5140731;27;20106;-65
2023/07/20 03:02:47;;;;;;;10.85;5.60;;;;;;;27.60;52.93;99246.00;5140757;27;20058;-64
2023/07/20 03:05:13;;;;;;;9.45;6.57;;;;;;;27.55;52.73;99256.91;5140797;27;20072;-65
2023/07/20 03:07:39;;;;;;;20.00;7.53;;;;;;;27.55;53.09;99256.91;5140707;27;20325;-63
2023/07/20 03:10:09;;;;;;;13.07;6.43;;;;;;;27.53;52.90;99257.19;5140967;27;20112;-64
2023/07/20 03:12:35;;;;;;;7.53;5.72;;;;;;;27.56;52.88;99255.81;5140325;27;20027;-64
2023/07/20 03:15:01;;;;;;;9.27;5.82;;;;;;;27.39;55.80;99264.38;5140203;27;20095;-64
2023/07/20 03:17:26;;;;;;;14.20;6.65;;;;;;;27.31;54.48;99256.84;5140523;27;20027;-64
2023/07/20 03:19:52;;;;;;;12.35;7.38;;;;;;;27.30;53.56;99253.31;5140901;27;20056;-64
2023/07/20 03:22:18;;;;;;;9.85;6.38;;;;;;;27.25;53.16;99255.25;5139870;27;20035;-65
2023/07/20 03:24:43;;;;;;;11.27;6.40;;;;;;;27.30;54.18;99237.00;5140767;27;20031;-64
2023/07/20 03:27:09;;;;;;;13.10;6.32;;;;;;;27.40;55.26;99236.09;5140144;27;20302;-64
2023/07/20 03:29:34;;;;;;;67.35;11.20;;;;;;;27.43;55.45;99249.13;5140176;27;20084;-65
2023/07/20 03:32:00;;;;;;;35.28;9.85;;;;;;;27.44;55.49;99253.47;5140245;27;20038;-64
2023/07/20 03:34:25;;;;;;;20.77;8.32;;;;;;;27.41;54.13;99245.88;5140608;27;20214;-64
2023/07/20 03:36:51;;;;;;;13.32;7.28;;;;;;;27.32;54.20;99253.84;5140902;27;20162;-64
2023/07/20 03:39:16;;;;;;;15.82;7.13;;;;;;;27.18;56.98;99257.47;5140667;27;20107;-64
2023/07/20 03:41:43;;;;;;;23.35;7.65;;;;;;;26.83;59.09;99244.88;5139970;27;20099;-64
2023/07/20 03:44:08;;;;;;;10.90;6.78;;;;;;;26.48;61.07;99240.44;5139956;27;20034;-64
2023/07/20 03:46:34;;;;;;;11.93;7.28;;;;;;;26.34;62.21;99240.22;5140218;27;20031;-64
2023/07/20 03:49:00;;;;;;;9.80;6.45;;;;;;;26.09;63.66;99243.81;5140574;27;20039;-64
2023/07/20 03:51:26;;;;;;;11.45;6.43;;;;;;;26.10;63.36;99245.44;5139976;27;20043;-64
2023/07/20 03:53:51;;;;;;;12.40;6.78;;;;;;;26.07;63.42;99252.22;5140008;27;20089;-64
2023/07/20 03:56:17;;;;;;;11.93;6.60;;;;;;;26.03;64.67;99256.56;5140438;27;20038;-63
2023/07/20 03:58:42;;;;;;;10.27;6.90;;;;;;;25.93;64.95;99250.31;5140386;27;20029;-65
2023/07/20 04:01:09;;;;;;;11.43;7.30;;;;;;;25.85;65.23;99248.16;5139410;27;20031;-64
2023/07/20 04:03:35;;;;;;;13.18;6.82;;;;;;;26.02;65.38;99251.44;5139286;27;20103;-64
2023/07/20 04:06:01;;;;;;;11.38;7.00;;;;;;;26.14;63.56;99243.78;5139559;27;20039;-64
2023/07/20 04:08:26;;;;;;;13.15;7.00;;;;;;;26.13;64.18;99252.22;5139649;27;20214;-64
2023/07/20 04:10:52;;;;;;;10.90;7.28;;;;;;;26.12;64.46;99259.53;5139443;27;20049;-65
2023/07/20 04:13:17;;;;;;;15.75;7.40;;;;;;;26.12;64.66;99254.13;5139193;27;20045;-64
2023/07/20 04:15:43;;;;;;;10.05;7.63;;;;;;;26.23;64.00;99255.69;5139174;27;20058;-64
2023/07/20 04:18:08;;;;;;;10.48;7.88;;;;;;;26.11;65.29;99270.66;5139680;27;20035;-64
2023/07/20 04:20:34;;;;;;;9.05;8.13;;;;;;;26.04;65.30;99266.34;5139226;27;20039;-64
2023/07/20 04:22:59;;;;;;;12.88;8.40;;;;;;;26.04;65.90;99271.75;5139083;27;20047;-63
2023/07/20 04:25:25;;;;;;;10.60;8.02;;;;;;;25.91;66.65;99272.31;5139396;27;20072;-64
2023/07/20 04:27:51;;;;;;;27.27;9.05;;;;;;;25.92;67.16;99265.78;5139129;27;20298;-64
2023/07/20 04:30:20;;;;;;;13.05;8.13;;;;;;;25.99;65.11;99269.03;5139491;27;20508;-64
2023/07/20 04:32:46;;;;;;;12.77;6.90;;;;;;;26.09;65.75;99257.38;5138061;27;20027;-64
2023/07/20 04:35:37;;;;;;;11.90;7.88;;;;;;;26.27;65.35;99264.09;5138833;27;20284;-64
2023/07/20 04:38:03;;;;;;;19.65;9.07;;;;;;;26.43;63.32;99265.72;5139010;27;20038;-64
2023/07/20 04:40:28;;;;;;;19.83;8.77;;;;;;;26.59;63.52;99255.59;5138944;27;20244;-64
2023/07/20 04:42:53;;;;;;;13.90;8.07;;;;;;;26.59;63.08;99253.69;5138427;27;20236;-64
2023/07/20 04:45:19;;;;;;;10.43;7.32;;;;;;;26.85;62.08;99261.72;5138307;27;20209;-63
2023/07/20 04:47:44;;;;;;;11.27;6.80;;;;;;;27.09;61.95;99270.03;5138499;27;20232;-64
2023/07/20 04:50:10;;;;;;;9.95;6.72;;;;;;;27.20;59.85;99277.03;5138082;27;20320;-63
2023/07/20 04:52:35;;;;;;;7.82;7.00;;;;;;;27.11;59.51;99273.28;5137860;27;20214;-64
2023/07/20 04:55:01;;;;;;;10.52;6.88;;;;;;;27.32;59.40;99280.22;5138585;27;20198;-64
2023/07/20 04:57:26;;;;;;;7.68;6.22;;;;;;;27.46;59.59;99281.19;5138094;27;20043;-64
2023/07/20 04:59:52;;;;;;;10.50;7.00;;;;;;;27.50;58.43;99282.25;5137853;27;20043;-64
2023/07/20 05:02:17;;;;;;;8.48;7.22;;;;;;;27.56;56.85;99278.38;5137321;27;20106;-64
2023/07/20 05:04:43;;;;;;;9.38;6.65;;;;;;;27.75;57.03;99275.81;5137953;27;20039;-64
2023/07/20 05:07:08;;;;;;;9.40;6.88;;;;;;;28.01;57.66;99276.38;5137523;27;20588;-64
2023/07/20 05:09:34;;;;;;;9.55;6.80;;;;;;;28.15;56.55;99279.25;5137740;27;20232;-64
2023/07/20 05:11:59;;;;;;;10.43;5.95;;;;;;;28.14;54.69;99272.19;5138431;27;20316;-65
2023/07/20 05:14:25;;;;;;;10.05;6.53;;;;;;;28.19;57.17;99272.13;5137431;27;20359;-65
2023/07/20 05:16:50;;;;;;;10.98;6.55;;;;;;;28.52;56.22;99262.25;5137228;27;20035;-64
2023/07/20 05:19:15;;;;;;;11.48;6.40;;;;;;;28.77;52.41;99270.09;5118746;27;20027;-64
2023/07/20 05:21:41;;;;;;;8.60;6.13;;;;;;;28.99;52.09;99266.81;5137327;27;20329;-64
2023/07/20 05:24:07;;;;;;;9.85;6.10;;;;;;;29.15;51.34;99262.78;5137380;27;20325;-64
2023/07/20 05:26:33;;;;;;;9.68;6.28;;;;;;;29.30;51.24;99255.47;5136916;27;20276;-64
2023/07/20 05:28:58;;;;;;;7.82;6.00;;;;;;;29.58;49.78;99262.69;5137666;27;20046;-65
2023/07/20 05:31:26;;;;;;;9.18;5.80;;;;;;;29.66;49.85;99259.25;5136936;27;20629;-64
2023/07/20 05:33:51;;;;;;;8.43;5.82;;;;;;;29.73;49.33;99264.34;5137393;27;20038;-65
2023/07/20 05:36:16;;;;;;;10.82;6.95;;;;;;;29.71;49.09;99266.56;5136878;27;20234;-65
2023/07/20 05:38:42;;;;;;;8.75;6.22;;;;;;;29.81;48.36;99256.25;5136988;27;20228;-63
2023/07/20 05:41:10;;;;;;;8.40;6.20;;;;;;;30.18;45.07;99257.28;5136886;27;20217;-63
2023/07/20 05:43:35;;;;;;;8.18;6.10;;;;;;;30.44;45.86;99249.38;5136967;27;20114;-63
2023/07/20 05:46:01;;;;;;;7.18;5.78;;;;;;;30.65;46.49;99249.78;5121535;27;20062;-63
2023/07/20 05:48:26;;;;;;;9.50;5.90;;;;;;;30.79;44.69;99243.19;5140185;27;20043;-63
2023/07/20 05:50:52;;;;;;;9.23;5.90;;;;;;;30.66;43.28;99235.81;5139977;27;20064;-62
2023/07/20 05:53:17;;;;;;;8.00;6.10;;;;;;;30.77;43.45;99223.53;5140341;27;20035;-63
2023/07/20 05:55:43;;;;;;;7.85;5.80;;;;;;;31.03;42.90;99220.22;5139876;27;20079;-63
2023/07/20 05:58:08;;;;;;;8.88;6.05;;;;;;;31.06;42.19;99223.16;5140371;27;20031;-63
2023/07/20 06:00:34;;;;;;;6.55;5.63;;;;;;;31.16;43.40;99222.13;5140597;27;20111;-63
2023/07/20 06:02:59;;;;;;;10.93;6.28;;;;;;;31.40;41.21;99228.13;5140592;27;20316;-63
2023/07/20 06:05:24;;;;;;;8.80;5.72;;;;;;;31.67;38.77;99227.16;5140659;27;20147;-63
2023/07/20 06:07:50;;;;;;;7.28;5.25;;;;;;;31.78;39.08;99221.44;5139642;27;20083;-63
2023/07/20 06:10:16;;;;;;;10.35;5.30;;;;;;;32.04;38.82;99205.94;5140490;27;20102;-63
2023/07/20 06:12:41;;;;;;;12.27;5.88;;;;;;;31.96;39.25;99217.66;5140181;27;20336;-63
2023/07/20 06:15:25;;;;;;;7.55;5.75;;;;;;;32.31;37.70;99213.97;5138950;27;20031;-63
2023/07/20 06:17:51;;;;;;;11.75;4.93;;;;;;;32.64;36.77;99210.81;5140777;27;20058;-63
2023/07/20 06:20:16;;;;;;;9.65;5.43;;;;;;;32.86;35.63;99205.22;5140586;27;20043;-63
2023/07/20 06:22:42;;;;;;;8.00;5.90;;;;;;;32.99;35.87;99203.44;5139940;27;20107;-63
2023/07/20 06:25:08;;;;;;;9.48;6.35;;;;;;;33.24;36.45;99190.81;5140146;27;20293;-63
2023/07/20 06:27:33;;;;;;;7.38;5.75;;;;;;;33.46;36.98;99198.09;5139860;27;20050;-63
2023/07/20 06:29:58;;;;;;;8.55;5.55;;;;;;;33.67;35.97;99206.44;5139870;27;20042;-63
2023/07/20 06:32:24;;;;;;;12.52;6.18;;;;;;;33.61;37.50;99200.31;5138082;27;20038;-63
2023/07/20 06:34:49;;;;;;;13.63;6.00;;;;;;;33.42;36.21;99197.16;5139904;27;20042;-63
2023/07/20 06:37:15;;;;;;;7.60;6.22;;;;;;;33.46;37.62;99198.91;5140245;27;20049;-63
2023/07/20 06:39:40;;;;;;;11.27;6.50;;;;;;;33.27;36.89;99198.41;5139897;27;20041;-63
2023/07/20 06:42:06;;;;;;;10.27;5.95;;;;;;;33.29;35.99;99205.25;5137949;27;20045;-63
2023/07/20 06:44:31;;;;;;;9.48;5.80;;;;;;;33.34;36.01;99209.75;5139819;27;20042;-63
2023/07/20 06:46:57;;;;;;;6.97;5.68;;;;;;;33.45;36.77;99201.97;5140340;27;20043;-63
2023/07/20 06:49:27;;;;;;;7.15;5.93;;;;;;;33.48;36.44;99204.06;5139735;27;20045;-63
2023/07/20 06:51:52;;;;;;;10.15;5.72;;;;;;;33.71;35.68;99205.47;5140290;27;20042;-62
2023/07/20 06:54:18;;;;;;;11.23;5.82;;;;;;;33.88;35.63;99199.94;5140224;27;20031;-63
2023/07/20 06:56:43;;;;;;;8.10;5.75;;;;;;;33.90;35.20;99196.84;5139128;27;20047;-63
2023/07/20 06:59:09;;;;;;;7.43;5.90;;;;;;;34.06;34.56;99194.38;5139930;27;20042;-63
2023/07/20 07:01:34;;;;;;;6.40;5.70;;;;;;;34.16;34.00;99191.25;5140381;27;20096;-64
2023/07/20 07:04:00;;;;;;;7.82;6.00;;;;;;;34.11;33.61;99192.22;5140296;27;20035;-63
2023/07/20 07:06:27;;;;;;;7.38;5.45;;;;;;;34.18;33.81;99194.47;5139629;27;20035;-62
2023/07/20 07:08:53;;;;;;;12.38;6.03;;;;;;;34.20;33.62;99197.69;5139878;27;20094;-62
2023/07/20 07:11:18;;;;;;;13.20;6.07;;;;;;;34.38;33.74;99196.50;5139238;27;20089;-62
2023/07/20 07:13:46;;;;;;;10.63;6.45;;;;;;;34.52;33.70;99191.56;5139040;27;20027;-63
2023/07/20 07:16:14;;;;;;;9.52;6.13;;;;;;;34.64;33.50;99192.78;5139854;27;20063;-62
2023/07/20 07:18:40;;;;;;;7.35;6.10;;;;;;;34.45;33.46;99190.47;5139700;27;20348;-62
2023/07/20 07:21:05;;;;;;;8.77;5.68;;;;;;;34.38;34.03;99184.69;5139655;27;20043;-63
2023/07/20 07:23:31;;;;;;;8.25;5.40;;;;;;;34.65;33.71;99192.44;5139787;27;20039;-62
2023/07/20 07:25:56;;;;;;;9.00;6.20;;;;;;;34.63;32.94;99189.22;5138876;27;20050;-62
2023/07/20 07:28:22;;;;;;;9.27;5.25;;;;;;;34.97;31.77;99184.59;5121547;27;20038;-62
2023/07/20 07:30:48;;;;;;;6.95;5.53;;;;;;;35.14;31.84;99195.44;5139981;27;20092;-63
2023/07/20 07:33:13;;;;;;;8.07;5.55;;;;;;;35.40;31.54;99187.81;5140003;27;20221;-62
2023/07/20 07:35:39;;;;;;;8.40;5.57;;;;;;;35.41;31.63;99186.66;5139440;27;20068;-62
2023/07/20 07:38:06;;;;;;;7.88;5.47;;;;;;;35.62;31.66;99180.28;5134029;27;20062;-62
2023/07/20 07:40:32;;;;;;;8.77;5.40;;;;;;;35.39;31.68;99182.63;5136476;27;20087;-62
2023/07/20 07:42:57;;;;;;;7.47;4.95;;;;;;;34.82;32.71;99172.28;5136719;27;20220;-63
2023/07/20 07:45:23;;;;;;;9.02;5.50;;;;;;;34.88;32.24;99188.22;5138156;27;20039;-62
2023/07/20 07:47:48;;;;;;;8.85;5.47;;;;;;;34.89;31.66;99170.59;5137956;27;20027;-63
2023/07/20 07:50:14;;;;;;;6.40;5.20;;;;;;;35.28;30.19;99175.88;5138583;27;20240;-63
2023/07/20 07:52:40;;;;;;;7.03;4.95;;;;;;;35.50;29.78;99170.84;5137869;27;20259;-63
2023/07/20 07:55:06;;;;;;;6.63;5.22;;;;;;;35.72;30.50;99177.88;5138693;27;20027;-64
2023/07/20 07:57:31;;;;;;;8.38;4.95;;;;;;;35.99;30.83;99170.13;5138754;27;20098;-63
2023/07/20 07:59:57;;;;;;;9.73;6.40;;;;;;;36.24;29.87;99168.16;5139383;27;21118;-63
2023/07/20 08:02:22;;;;;;;8.98;5.47;;;;;;;36.08;29.89;99170.81;5138902;27;20042;-63
2023/07/20 08:04:51;;;;;;;7.35;5.25;;;;;;;36.10;30.83;99169.31;5136398;27;20137;-62
2023/07/20 08:07:16;;;;;;;8.68;5.72;;;;;;;36.38;29.96;99165.84;5135255;27;20096;-63
2023/07/20 08:09:42;;;;;;;8.23;5.55;;;;;;;36.60;30.28;99167.34;5119563;27;20225;-64
2023/07/20 08:12:07;;;;;;;6.53;5.35;;;;;;;36.56;29.79;99183.78;5138102;27;20046;-64
2023/07/20 08:14:33;;;;;;;8.57;5.18;;;;;;;36.80;29.43;99173.84;5138318;27;20344;-64
2023/07/20 08:16:59;;;;;;;12.50;5.75;;;;;;;36.82;29.86;99169.59;5138936;27;20202;-64
2023/07/20 08:19:24;;;;;;;7.95;5.63;;;;;;;36.90;29.94;99171.41;5138240;27;20046;-64
2023/07/20 08:21:50;;;;;;;10.60;5.90;;;;;;;37.08;29.58;99171.91;5138171;27;20102;-63
2023/07/20 08:24:15;;;;;;;7.90;5.53;;;;;;;37.17;29.01;99174.50;5138050;27;20038;-63
2023/07/20 08:26:41;;;;;;;6.57;5.30;;;;;;;36.80;30.25;99171.09;5137782;27;20114;-64
2023/07/20 08:29:06;;;;;;;5.95;5.40;;;;;;;36.82;29.75;99166.03;5138382;27;20075;-63
2023/07/20 08:31:32;;;;;;;7.03;5.43;;;;;;;36.73;28.72;99163.38;5137727;27;20110;-64
2023/07/20 08:33:57;;;;;;;6.50;5.20;;;;;;;36.57;29.76;99174.34;5138621;27;20034;-63
2023/07/20 08:36:24;;;;;;;7.15;5.13;;;;;;;36.44;29.99;99172.78;5138550;27;20037;-63
2023/07/20 08:38:50;;;;;;;7.55;5.70;;;;;;;36.36;31.00;99174.47;5137037;27;20065;-63
2023/07/20 08:41:16;;;;;;;8.23;5.80;;;;;;;36.44;29.52;99176.34;5119640;27;20168;-65
2023/07/20 08:43:43;;;;;;;6.47;5.13;;;;;;;36.08;30.11;99179.88;5137801;27;20076;-62
2023/07/20 08:46:13;;;;;;;13.00;6.15;;;;;;;36.22;29.81;99168.50;5137550;27;20329;-62
2023/07/20 08:48:41;;;;;;;8.18;5.78;;;;;;;36.51;29.63;99169.44;5137129;27;20267;-63
2023/07/20 08:51:07;;;;;;;9.30;5.60;;;;;;;36.71;29.75;99169.25;5137944;27;20035;-63
2023/07/20 08:53:33;;;;;;;8.25;5.15;;;;;;;36.84;28.91;99153.50;5137139;27;20069;-62
2023/07/20 08:56:00;;;;;;;7.53;5.13;;;;;;;36.92;28.83;99149.78;5137852;27;20039;-63
2023/07/20 08:58:28;;;;;;;9.05;5.47;;;;;;;37.00;29.48;99153.53;5136454;27;20058;-62
2023/07/20 09:00:55;;;;;;;9.10;5.38;;;;;;;37.12;28.97;99150.72;5137751;27;20031;-63
2023/07/20 09:03:21;;;;;;;7.25;5.47;;;;;;;37.26;28.42;99153.09;5137141;27;20046;-63
2023/07/20 09:05:46;;;;;;;5.93;5.18;;;;;;;37.42;28.58;99145.63;5137589;27;20043;-63
2023/07/20 09:08:12;;;;;;;9.98;5.55;;;;;;;37.54;28.03;99136.50;5137657;27;20058;-63
2023/07/20 09:10:37;;;;;;;6.35;5.03;;;;;;;37.55;26.67;99135.34;5137283;27;20043;-63
2023/07/20 09:13:03;;;;;;;6.88;5.28;;;;;;;37.17;28.58;99130.34;5137683;27;20039;-63
2023/07/20 09:15:30;;;;;;;7.53;5.55;;;;;;;36.89;29.29;99122.88;5137272;27;20039;-63
2023/07/20 09:17:56;;;;;;;6.43;4.97;;;;;;;36.60;28.70;99123.22;5137333;27;20263;-63
2023/07/20 09:20:21;;;;;;;7.53;5.70;;;;;;;35.81;28.99;99123.50;5140955;27;20031;-63
2023/07/20 09:22:47;;;;;;;6.82;5.45;;;;;;;35.53;30.08;99119.00;5142234;27;20169;-63
2023/07/20 09:25:14;;;;;;;6.25;5.65;;;;;;;35.72;29.14;99116.47;5141338;27;20058;-63
2023/07/20 09:27:48;;;;;;;5.70;5.05;;;;;;;35.92;28.52;99114.78;5141515;27;20031;-63
2023/07/20 09:30:17;;;;;;;7.20;5.47;;;;;;;36.12;28.46;99114.66;5142126;27;20039;-63
2023/07/20 09:32:48;;;;;;;10.45;5.13;;;;;;;36.29;29.66;99099.03;5142291;27;20275;-63
2023/07/20 09:35:18;;;;;;;7.50;6.13;;;;;;;36.38;29.44;99081.19;5141765;27;20043;-62
2023/07/20 09:37:52;;;;;;;6.75;5.45;;;;;;;36.49;29.36;99084.28;5141393;27;20027;-63
2023/07/20 09:40:18;;;;;;;8.63;5.70;;;;;;;36.33;28.66;99092.47;5141870;27;20117;-63
2023/07/20 09:42:44;;;;;;;7.22;5.90;;;;;;;36.20;29.04;99088.09;5141118;27;20099;-62
2023/07/20 09:45:10;;;;;;;11.95;5.32;;;;;;;36.15;29.79;99088.34;5140476;27;20424;-63
2023/07/20 09:47:39;;;;;;;7.97;5.88;;;;;;;36.15;28.83;99083.63;5141844;27;20034;-63
2023/07/20 09:50:10;;;;;;;7.97;5.45;;;;;;;36.20;28.16;99079.84;5141042;27;20042;-63
2023/07/20 09:52:38;;;;;;;8.77;5.63;;;;;;;36.15;29.18;99078.13;5140750;27;20062;-63
2023/07/20 09:55:05;;;;;;;8.05;5.85;;;;;;;36.24;28.77;99077.19;5139859;27;20027;-63
2023/07/20 09:57:33;;;;;;;9.05;5.53;;;;;;;36.29;29.24;99064.00;5135165;27;20031;-63
2023/07/20 09:59:59;;;;;;;9.00;5.38;;;;;;;36.35;29.67;99072.81;5136516;27;20042;-62
2023/07/20 10:02:33;;;;;;;7.43;5.40;;;;;;;36.39;29.55;99076.47;5134968;27;20027;-63
2023/07/20 10:05:02;;;;;;;11.60;6.07;;;;;;;36.43;28.72;99064.44;5134650;27;20038;-63
2023/07/20 10:07:30;;;;;;;9.55;5.93;;;;;;;36.44;28.65;99060.53;5135310;27;20038;-64
2023/07/20 10:09:59;;;;;;;10.48;6.00;;;;;;;36.32;27.94;99062.50;5135042;27;20106;-63
2023/07/20 10:12:27;;;;;;;7.88;5.60;;;;;;;36.20;28.37;99044.00;5131111;27;20031;-62
2023/07/20 10:15:15;;;;;;;8.95;5.90;;;;;;;36.00;28.65;99048.53;5120957;27;20225;-63
2023/07/20 10:17:57;;;;;;;8.80;5.88;;;;;;;35.86;28.96;99041.78;5136334;27;20102;-63
2023/07/20 10:20:22;;;;;;;7.82;6.55;;;;;;;35.89;29.37;99038.34;5133144;27;20305;-63
2023/07/20 10:22:52;;;;;;;8.80;5.70;;;;;;;35.87;29.01;99032.38;5134966;27;20077;-62
2023/07/20 10:25:19;;;;;;;7.85;6.35;;;;;;;35.93;28.88;99029.03;5133667;27;20098;-62
2023/07/20 10:27:45;;;;;;;10.40;5.38;;;;;;;35.96;28.40;99028.34;5134065;27;20280;-63
2023/07/20 10:30:11;;;;;;;7.85;5.75;;;;;;;35.77;28.66;99014.34;5132391;27;20051;-63
2023/07/20 10:32:39;;;;;;;7.63;5.10;;;;;;;35.59;28.84;99018.50;5133865;27;20042;-62
2023/07/20 10:35:12;;;;;;;7.30;5.68;;;;;;;35.63;29.26;99008.41;5135132;27;20035;-63
2023/07/20 10:37:52;;;;;;;8.20;5.88;;;;;;;35.58;29.33;99011.38;5134545;27;20221;-63
2023/07/20 10:40:42;;;;;;;6.80;5.70;;;;;;;35.67;28.92;99009.31;5114833;27;20053;-63
2023/07/20 10:43:09;;;;;;;10.60;5.97;;;;;;;35.72;30.54;99006.31;5135129;27;20233;-64
2023/07/20 10:45:42;;;;;;;7.00;5.57;;;;;;;35.66;30.77;99004.94;5135269;27;20104;-62
2023/07/20 10:48:15;;;;;;;6.55;5.65;;;;;;;35.73;31.17;99003.22;5133206;27;20039;-63
2023/07/20 10:50:42;;;;;;;7.57;5.82;;;;;;;35.76;31.53;99005.28;5132371;27;20038;-63
2023/07/20 10:53:12;;;;;;;7.80;5.70;;;;;;;35.82;32.68;99009.44;5134547;27;20034;-63
2023/07/20 10:55:39;;;;;;;6.00;5.40;;;;;;;35.91;31.79;99002.97;5134354;27;20096;-63
2023/07/20 10:58:12;;;;;;;8.85;5.90;;;;;;;35.76;32.58;98980.50;5134150;27;20277;-63
2023/07/20 11:00:38;;;;;;;;;;;;;;;35.96;31.57;98987.00;5131637;27;20032;-63
2023/07/20 11:03:04;;;;;;;8.88;5.95;;;;;;;36.07;32.00;98987.31;5133964;27;20163;-63
2023/07/20 11:05:40;;;;;;;6.40;5.60;;;;;;;36.04;29.70;98990.78;5131672;27;20058;-63
2023/07/20 11:08:12;;;;;;;9.68;6.10;;;;;;;36.00;29.08;98984.34;5132689;27;20066;-63
2023/07/20 11:10:38;;;;;;;9.77;6.50;;;;;;;36.01;29.91;98980.44;5134094;27;20088;-63
2023/07/20 11:13:22;;;;;;;8.95;5.88;;;;;;;36.01;30.15;98978.50;5133845;27;20455;-63
2023/07/20 11:16:02;;;;;;;8.70;6.28;;;;;;;35.98;29.86;98975.63;5132468;27;20035;-63
2023/07/20 11:18:28;;;;;;;8.18;5.55;;;;;;;35.98;28.95;98975.63;5134115;27;20058;-63
2023/07/20 11:20:53;;;;;;;8.93;5.93;;;;;;;35.98;29.44;98972.88;5133178;27;20033;-63
2023/07/20 11:23:22;;;;;;;7.30;5.68;;;;;;;36.12;30.08;98965.84;5133762;27;20129;-63
2023/07/20 11:25:48;;;;;;;9.82;6.45;;;;;;;36.26;28.58;98965.44;5132639;27;20055;-62
2023/07/20 11:28:13;;;;;;;11.07;6.47;;;;;;;36.22;29.75;98961.78;5133872;27;20356;-63
2023/07/20 11:30:39;;;;;;;7.80;5.95;;;;;;;36.09;28.58;98955.50;5132822;27;20264;-63